sensor_id;sensor_type;location;lat;lon;timestamp;P1;durP1;ratioP1;P2;durP2;ratioP2
12687;SDS011;6408;59.388;17.798;2023-06-22T00:01:16;6.97;;;6.30;;
12687;SDS011;6408;59.388;17.798;2023-06-22T00:03:43;6.93;;;6.22;;
12687;SDS011;6408;59.388;17.798;2023-06-22T00:06:13;7.20;;;6.60;;
12687;SDS011;6408;59.388;17.798;2023-06-22T00:08:40;7.10;;;6.50;;
12687;SDS011;6408;59.388;17.798;2023-06-22T00:11:07;7.22;;;6.60;;
12687;SDS011;6408;59.388;17.798;2023-06-22T00:13:35;6.75;;;6.22;;
12687;SDS011;6408;59.388;17.798;2023-06-22T00:16:03;7.25;;;6.07;;
12687;SDS011;6408;59.388;17.798;2023-06-22T00:18:31;7.78;;;6.40;;
12687;SDS011;6408;59.388;17.798;2023-06-22T00:20:58;7.55;;;6.65;;
12687;SDS011;6408;59.388;17.798;2023-06-22T00:23:27;7.10;;;6.30;;
12687;SDS011;6408;59.388;17.798;2023-06-22T00:25:59;7.03;;;6.38;;
12687;SDS011;6408;59.388;17.798;2023-06-22T00:28:26;7.28;;;6.68;;
12687;SDS011;6408;59.388;17.798;2023-06-22T00:30:54;7.82;;;7.05;;
12687;SDS011;6408;59.388;17.798;2023-06-22T00:33:21;7.75;;;6.30;;
12687;SDS011;6408;59.388;17.798;2023-06-22T00:35:49;6.70;;;6.10;;
12687;SDS011;6408;59.388;17.798;2023-06-22T00:38:17;7.40;;;6.70;;
12687;SDS011;6408;59.388;17.798;2023-06-22T00:40:47;7.43;;;6.72;;
12687;SDS011;6408;59.388;17.798;2023-06-22T00:43:15;8.23;;;6.97;;
12687;SDS011;6408;59.388;17.798;2023-06-22T00:45:42;7.60;;;6.80;;
12687;SDS011;6408;59.388;17.798;2023-06-22T00:48:09;7.65;;;6.95;;
12687;SDS011;6408;59.388;17.798;2023-06-22T00:50:38;7.70;;;7.00;;
12687;SDS011;6408;59.388;17.798;2023-06-22T00:53:07;7.60;;;6.90;;
12687;SDS011;6408;59.388;17.798;2023-06-22T00:55:37;8.05;;;7.35;;
12687;SDS011;6408;59.388;17.798;2023-06-22T00:58:10;9.68;;;7.15;;
12687;SDS011;6408;59.388;17.798;2023-06-22T01:00:38;8.45;;;7.60;;
12687;SDS011;6408;59.388;17.798;2023-06-22T01:03:06;8.57;;;7.85;;
12687;SDS011;6408;59.388;17.798;2023-06-22T01:05:34;8.23;;;7.53;;
12687;SDS011;6408;59.388;17.798;2023-06-22T01:08:06;8.05;;;7.25;;
12687;SDS011;6408;59.388;17.798;2023-06-22T01:10:43;9.50;;;8.02;;
12687;SDS011;6408;59.388;17.798;2023-06-22T01:13:21;9.63;;;7.65;;
12687;SDS011;6408;59.388;17.798;2023-06-22T01:15:55;8.07;;;7.38;;
12687;SDS011;6408;59.388;17.798;2023-06-22T01:18:28;8.70;;;7.82;;
12687;SDS011;6408;59.388;17.798;2023-06-22T01:20:58;8.48;;;7.72;;
12687;SDS011;6408;59.388;17.798;2023-06-22T01:23:29;9.63;;;7.75;;
12687;SDS011;6408;59.388;17.798;2023-06-22T01:26:05;8.43;;;7.72;;
12687;SDS011;6408;59.388;17.798;2023-06-22T01:28:45;8.90;;;8.05;;
12687;SDS011;6408;59.388;17.798;2023-06-22T01:31:13;9.40;;;8.60;;
12687;SDS011;6408;59.388;17.798;2023-06-22T01:33:43;8.43;;;7.65;;
12687;SDS011;6408;59.388;17.798;2023-06-22T01:36:13;9.68;;;8.75;;
12687;SDS011;6408;59.388;17.798;2023-06-22T01:38:43;9.10;;;8.27;;
12687;SDS011;6408;59.388;17.798;2023-06-22T01:41:12;9.57;;;8.63;;
12687;SDS011;6408;59.388;17.798;2023-06-22T01:43:40;9.98;;;8.98;;
12687;SDS011;6408;59.388;17.798;2023-06-22T01:46:09;9.18;;;8.38;;
12687;SDS011;6408;59.388;17.798;2023-06-22T01:48:37;9.00;;;8.18;;
12687;SDS011;6408;59.388;17.798;2023-06-22T01:51:05;9.80;;;8.77;;
12687;SDS011;6408;59.388;17.798;2023-06-22T01:53:33;9.98;;;9.07;;
12687;SDS011;6408;59.388;17.798;2023-06-22T01:56:00;9.90;;;9.05;;
12687;SDS011;6408;59.388;17.798;2023-06-22T01:58:28;9.13;;;8.25;;
12687;SDS011;6408;59.388;17.798;2023-06-22T02:00:58;10.32;;;9.25;;
12687;SDS011;6408;59.388;17.798;2023-06-22T02:03:32;9.25;;;8.40;;
12687;SDS011;6408;59.388;17.798;2023-06-22T02:06:04;9.40;;;8.55;;
12687;SDS011;6408;59.388;17.798;2023-06-22T02:08:35;9.38;;;8.52;;
12687;SDS011;6408;59.388;17.798;2023-06-22T02:11:07;8.88;;;8.00;;
12687;SDS011;6408;59.388;17.798;2023-06-22T02:13:36;9.30;;;8.38;;
12687;SDS011;6408;59.388;17.798;2023-06-22T02:16:07;9.27;;;8.38;;
12687;SDS011;6408;59.388;17.798;2023-06-22T02:18:38;9.65;;;8.75;;
12687;SDS011;6408;59.388;17.798;2023-06-22T02:21:06;10.35;;;9.45;;
12687;SDS011;6408;59.388;17.798;2023-06-22T02:23:33;9.55;;;8.75;;
12687;SDS011;6408;59.388;17.798;2023-06-22T02:26:01;9.63;;;8.75;;
12687;SDS011;6408;59.388;17.798;2023-06-22T02:28:29;9.38;;;8.32;;
12687;SDS011;6408;59.388;17.798;2023-06-22T02:30:56;9.07;;;8.27;;
12687;SDS011;6408;59.388;17.798;2023-06-22T02:33:24;9.95;;;8.95;;
12687;SDS011;6408;59.388;17.798;2023-06-22T02:35:54;9.77;;;8.80;;
12687;SDS011;6408;59.388;17.798;2023-06-22T02:38:21;8.88;;;8.10;;
12687;SDS011;6408;59.388;17.798;2023-06-22T02:40:49;9.10;;;8.30;;
12687;SDS011;6408;59.388;17.798;2023-06-22T02:43:16;9.23;;;8.32;;
12687;SDS011;6408;59.388;17.798;2023-06-22T02:45:43;8.77;;;8.07;;
12687;SDS011;6408;59.388;17.798;2023-06-22T02:48:11;9.73;;;8.73;;
12687;SDS011;6408;59.388;17.798;2023-06-22T02:50:38;9.65;;;8.77;;
12687;SDS011;6408;59.388;17.798;2023-06-22T02:53:07;9.20;;;8.30;;
12687;SDS011;6408;59.388;17.798;2023-06-22T02:55:35;8.93;;;8.07;;
12687;SDS011;6408;59.388;17.798;2023-06-22T02:58:04;8.88;;;8.10;;
12687;SDS011;6408;59.388;17.798;2023-06-22T03:00:32;8.10;;;7.40;;
12687;SDS011;6408;59.388;17.798;2023-06-22T03:02:59;8.77;;;7.88;;
12687;SDS011;6408;59.388;17.798;2023-06-22T03:05:26;8.60;;;7.88;;
12687;SDS011;6408;59.388;17.798;2023-06-22T03:07:54;8.35;;;7.63;;
12687;SDS011;6408;59.388;17.798;2023-06-22T03:10:23;8.77;;;7.95;;
12687;SDS011;6408;59.388;17.798;2023-06-22T03:12:50;9.25;;;8.35;;
12687;SDS011;6408;59.388;17.798;2023-06-22T03:15:18;8.25;;;7.55;;
12687;SDS011;6408;59.388;17.798;2023-06-22T03:17:46;8.40;;;7.70;;
12687;SDS011;6408;59.388;17.798;2023-06-22T03:20:13;9.80;;;8.35;;
12687;SDS011;6408;59.388;17.798;2023-06-22T03:22:41;8.63;;;7.82;;
12687;SDS011;6408;59.388;17.798;2023-06-22T03:25:09;9.00;;;8.20;;
12687;SDS011;6408;59.388;17.798;2023-06-22T03:27:39;9.00;;;8.20;;
12687;SDS011;6408;59.388;17.798;2023-06-22T03:30:09;8.80;;;8.10;;
12687;SDS011;6408;59.388;17.798;2023-06-22T03:32:38;8.60;;;7.90;;
12687;SDS011;6408;59.388;17.798;2023-06-22T03:35:06;8.48;;;7.68;;
12687;SDS011;6408;59.388;17.798;2023-06-22T03:37:34;8.38;;;7.68;;
12687;SDS011;6408;59.388;17.798;2023-06-22T03:40:01;8.63;;;7.88;;
12687;SDS011;6408;59.388;17.798;2023-06-22T03:42:30;8.90;;;7.93;;
12687;SDS011;6408;59.388;17.798;2023-06-22T03:44:59;8.98;;;8.18;;
12687;SDS011;6408;59.388;17.798;2023-06-22T03:47:28;8.98;;;8.18;;
12687;SDS011;6408;59.388;17.798;2023-06-22T03:49:55;8.07;;;7.28;;
12687;SDS011;6408;59.388;17.798;2023-06-22T03:52:23;8.98;;;8.18;;
12687;SDS011;6408;59.388;17.798;2023-06-22T03:54:50;9.10;;;8.30;;
12687;SDS011;6408;59.388;17.798;2023-06-22T03:57:18;14.57;;;8.40;;
12687;SDS011;6408;59.388;17.798;2023-06-22T03:59:45;8.27;;;7.60;;
12687;SDS011;6408;59.388;17.798;2023-06-22T04:02:14;8.20;;;7.50;;
12687;SDS011;6408;59.388;17.798;2023-06-22T04:04:41;8.73;;;7.93;;
12687;SDS011;6408;59.388;17.798;2023-06-22T04:07:09;8.50;;;7.80;;
12687;SDS011;6408;59.388;17.798;2023-06-22T04:09:36;8.05;;;7.35;;
12687;SDS011;6408;59.388;17.798;2023-06-22T04:12:04;8.05;;;7.30;;
12687;SDS011;6408;59.388;17.798;2023-06-22T04:14:32;7.97;;;7.38;;
12687;SDS011;6408;59.388;17.798;2023-06-22T04:16:59;8.20;;;7.50;;
12687;SDS011;6408;59.388;17.798;2023-06-22T04:19:28;7.88;;;7.07;;
12687;SDS011;6408;59.388;17.798;2023-06-22T04:21:56;7.72;;;7.10;;
12687;SDS011;6408;59.388;17.798;2023-06-22T04:24:23;7.25;;;6.65;;
12687;SDS011;6408;59.388;17.798;2023-06-22T04:26:50;6.63;;;6.13;;
12687;SDS011;6408;59.388;17.798;2023-06-22T04:29:20;7.07;;;6.47;;
12687;SDS011;6408;59.388;17.798;2023-06-22T04:31:54;7.78;;;7.07;;
12687;SDS011;6408;59.388;17.798;2023-06-22T04:34:23;7.68;;;6.75;;
12687;SDS011;6408;59.388;17.798;2023-06-22T04:36:54;7.57;;;6.85;;
12687;SDS011;6408;59.388;17.798;2023-06-22T04:39:22;7.50;;;6.88;;
12687;SDS011;6408;59.388;17.798;2023-06-22T04:41:49;6.63;;;6.13;;
12687;SDS011;6408;59.388;17.798;2023-06-22T04:44:18;7.38;;;6.68;;
12687;SDS011;6408;59.388;17.798;2023-06-22T04:46:50;7.10;;;6.47;;
12687;SDS011;6408;59.388;17.798;2023-06-22T04:49:19;7.20;;;6.60;;
12687;SDS011;6408;59.388;17.798;2023-06-22T04:51:48;7.00;;;6.30;;
12687;SDS011;6408;59.388;17.798;2023-06-22T04:54:18;6.53;;;5.93;;
12687;SDS011;6408;59.388;17.798;2023-06-22T04:56:45;7.60;;;6.38;;
12687;SDS011;6408;59.388;17.798;2023-06-22T04:59:13;6.35;;;5.80;;
12687;SDS011;6408;59.388;17.798;2023-06-22T05:01:43;6.43;;;5.82;;
12687;SDS011;6408;59.388;17.798;2023-06-22T05:04:10;7.15;;;6.13;;
12687;SDS011;6408;59.388;17.798;2023-06-22T05:06:38;6.55;;;6.00;;
12687;SDS011;6408;59.388;17.798;2023-06-22T05:09:05;6.38;;;5.78;;
12687;SDS011;6408;59.388;17.798;2023-06-22T05:11:35;6.10;;;5.53;;
12687;SDS011;6408;59.388;17.798;2023-06-22T05:14:02;6.05;;;5.55;;
12687;SDS011;6408;59.388;17.798;2023-06-22T05:16:30;6.32;;;5.32;;
12687;SDS011;6408;59.388;17.798;2023-06-22T05:18:57;6.97;;;5.65;;
12687;SDS011;6408;59.388;17.798;2023-06-22T05:21:26;6.18;;;5.57;;
12687;SDS011;6408;59.388;17.798;2023-06-22T05:23:54;6.47;;;5.32;;
12687;SDS011;6408;59.388;17.798;2023-06-22T05:26:25;6.50;;;5.90;;
12687;SDS011;6408;59.388;17.798;2023-06-22T05:28:54;5.60;;;5.20;;
12687;SDS011;6408;59.388;17.798;2023-06-22T05:31:22;6.05;;;5.43;;
12687;SDS011;6408;59.388;17.798;2023-06-22T05:33:51;5.78;;;5.28;;
12687;SDS011;6408;59.388;17.798;2023-06-22T05:36:19;5.95;;;5.45;;
12687;SDS011;6408;59.388;17.798;2023-06-22T05:38:50;5.50;;;5.00;;
12687;SDS011;6408;59.388;17.798;2023-06-22T05:41:18;6.25;;;5.65;;
12687;SDS011;6408;59.388;17.798;2023-06-22T05:43:45;6.05;;;5.45;;
12687;SDS011;6408;59.388;17.798;2023-06-22T05:46:15;5.82;;;5.32;;
12687;SDS011;6408;59.388;17.798;2023-06-22T05:48:43;6.07;;;5.47;;
12687;SDS011;6408;59.388;17.798;2023-06-22T05:51:10;6.00;;;5.43;;
12687;SDS011;6408;59.388;17.798;2023-06-22T05:53:38;6.05;;;5.53;;
12687;SDS011;6408;59.388;17.798;2023-06-22T05:56:05;6.22;;;5.72;;
12687;SDS011;6408;59.388;17.798;2023-06-22T05:58:33;5.88;;;5.38;;
12687;SDS011;6408;59.388;17.798;2023-06-22T06:01:02;6.05;;;5.53;;
12687;SDS011;6408;59.388;17.798;2023-06-22T06:03:31;5.82;;;5.32;;
12687;SDS011;6408;59.388;17.798;2023-06-22T06:05:58;6.18;;;5.38;;
12687;SDS011;6408;59.388;17.798;2023-06-22T06:08:27;6.28;;;5.18;;
12687;SDS011;6408;59.388;17.798;2023-06-22T06:10:55;5.45;;;4.95;;
12687;SDS011;6408;59.388;17.798;2023-06-22T06:13:22;6.60;;;5.20;;
12687;SDS011;6408;59.388;17.798;2023-06-22T06:15:50;5.40;;;4.95;;
12687;SDS011;6408;59.388;17.798;2023-06-22T06:18:20;6.40;;;5.18;;
12687;SDS011;6408;59.388;17.798;2023-06-22T06:20:48;5.38;;;4.82;;
12687;SDS011;6408;59.388;17.798;2023-06-22T06:23:16;5.53;;;4.63;;
12687;SDS011;6408;59.388;17.798;2023-06-22T06:25:43;5.68;;;5.18;;
12687;SDS011;6408;59.388;17.798;2023-06-22T06:28:10;10.98;;;4.88;;
12687;SDS011;6408;59.388;17.798;2023-06-22T06:30:38;6.95;;;4.63;;
12687;SDS011;6408;59.388;17.798;2023-06-22T06:33:06;6.80;;;4.38;;
12687;SDS011;6408;59.388;17.798;2023-06-22T06:35:33;6.22;;;4.35;;
12687;SDS011;6408;59.388;17.798;2023-06-22T06:38:04;5.28;;;4.05;;
12687;SDS011;6408;59.388;17.798;2023-06-22T06:40:32;4.60;;;4.10;;
12687;SDS011;6408;59.388;17.798;2023-06-22T06:42:59;5.07;;;4.45;;
12687;SDS011;6408;59.388;17.798;2023-06-22T06:45:26;5.15;;;4.55;;
12687;SDS011;6408;59.388;17.798;2023-06-22T06:47:56;4.82;;;4.22;;
12687;SDS011;6408;59.388;17.798;2023-06-22T06:50:23;5.82;;;4.07;;
12687;SDS011;6408;59.388;17.798;2023-06-22T06:52:51;4.57;;;4.03;;
12687;SDS011;6408;59.388;17.798;2023-06-22T06:55:20;5.38;;;4.30;;
12687;SDS011;6408;59.388;17.798;2023-06-22T06:57:50;4.95;;;4.43;;
12687;SDS011;6408;59.388;17.798;2023-06-22T07:00:18;6.78;;;4.30;;
12687;SDS011;6408;59.388;17.798;2023-06-22T07:02:46;6.80;;;3.88;;
12687;SDS011;6408;59.388;17.798;2023-06-22T07:05:14;5.28;;;4.07;;
12687;SDS011;6408;59.388;17.798;2023-06-22T07:07:41;5.40;;;4.03;;
12687;SDS011;6408;59.388;17.798;2023-06-22T07:10:09;5.00;;;4.13;;
12687;SDS011;6408;59.388;17.798;2023-06-22T07:12:38;6.43;;;4.10;;
12687;SDS011;6408;59.388;17.798;2023-06-22T07:15:06;4.43;;;4.03;;
12687;SDS011;6408;59.388;17.798;2023-06-22T07:17:35;3.90;;;3.50;;
12687;SDS011;6408;59.388;17.798;2023-06-22T07:20:02;6.68;;;4.40;;
12687;SDS011;6408;59.388;17.798;2023-06-22T07:22:35;6.53;;;4.35;;
12687;SDS011;6408;59.388;17.798;2023-06-22T07:25:02;4.55;;;3.70;;
12687;SDS011;6408;59.388;17.798;2023-06-22T07:27:34;6.03;;;4.10;;
12687;SDS011;6408;59.388;17.798;2023-06-22T07:30:05;4.90;;;3.50;;
12687;SDS011;6408;59.388;17.798;2023-06-22T07:32:33;4.72;;;3.50;;
12687;SDS011;6408;59.388;17.798;2023-06-22T07:35:00;6.45;;;4.25;;
12687;SDS011;6408;59.388;17.798;2023-06-22T07:37:27;7.45;;;3.85;;
12687;SDS011;6408;59.388;17.798;2023-06-22T07:39:55;6.15;;;3.60;;
12687;SDS011;6408;59.388;17.798;2023-06-22T07:42:24;4.32;;;3.67;;
12687;SDS011;6408;59.388;17.798;2023-06-22T07:44:51;5.10;;;3.67;;
12687;SDS011;6408;59.388;17.798;2023-06-22T07:47:19;4.50;;;3.70;;
12687;SDS011;6408;59.388;17.798;2023-06-22T07:49:50;5.68;;;4.00;;
12687;SDS011;6408;59.388;17.798;2023-06-22T07:52:19;5.40;;;3.97;;
12687;SDS011;6408;59.388;17.798;2023-06-22T07:54:47;6.47;;;3.85;;
12687;SDS011;6408;59.388;17.798;2023-06-22T07:57:15;4.20;;;3.88;;
12687;SDS011;6408;59.388;17.798;2023-06-22T07:59:42;5.57;;;3.97;;
12687;SDS011;6408;59.388;17.798;2023-06-22T08:02:09;6.35;;;3.60;;
12687;SDS011;6408;59.388;17.798;2023-06-22T08:04:38;5.13;;;3.80;;
12687;SDS011;6408;59.388;17.798;2023-06-22T08:07:06;4.90;;;3.63;;
12687;SDS011;6408;59.388;17.798;2023-06-22T08:09:34;6.13;;;3.58;;
12687;SDS011;6408;59.388;17.798;2023-06-22T08:12:02;5.68;;;3.92;;
12687;SDS011;6408;59.388;17.798;2023-06-22T08:14:30;4.40;;;3.83;;
12687;SDS011;6408;59.388;17.798;2023-06-22T08:16:57;4.82;;;3.63;;
12687;SDS011;6408;59.388;17.798;2023-06-22T08:19:25;5.88;;;3.67;;
12687;SDS011;6408;59.388;17.798;2023-06-22T08:21:53;4.65;;;4.07;;
12687;SDS011;6408;59.388;17.798;2023-06-22T08:24:20;5.80;;;3.78;;
12687;SDS011;6408;59.388;17.798;2023-06-22T08:26:49;4.90;;;3.90;;
12687;SDS011;6408;59.388;17.798;2023-06-22T08:29:17;6.10;;;3.85;;
12687;SDS011;6408;59.388;17.798;2023-06-22T08:31:45;3.72;;;3.42;;
12687;SDS011;6408;59.388;17.798;2023-06-22T08:34:12;6.60;;;4.10;;
12687;SDS011;6408;59.388;17.798;2023-06-22T08:36:39;5.55;;;3.70;;
12687;SDS011;6408;59.388;17.798;2023-06-22T08:39:12;5.03;;;3.47;;
12687;SDS011;6408;59.388;17.798;2023-06-22T08:41:39;5.20;;;3.75;;
12687;SDS011;6408;59.388;17.798;2023-06-22T08:44:06;4.63;;;3.80;;
12687;SDS011;6408;59.388;17.798;2023-06-22T08:46:34;4.20;;;3.78;;
12687;SDS011;6408;59.388;17.798;2023-06-22T08:49:04;5.47;;;3.55;;
12687;SDS011;6408;59.388;17.798;2023-06-22T08:51:31;3.97;;;3.20;;
12687;SDS011;6408;59.388;17.798;2023-06-22T08:53:59;3.70;;;3.30;;
12687;SDS011;6408;59.388;17.798;2023-06-22T08:56:28;4.75;;;3.42;;
12687;SDS011;6408;59.388;17.798;2023-06-22T08:58:55;4.13;;;3.35;;
12687;SDS011;6408;59.388;17.798;2023-06-22T09:01:22;3.50;;;3.20;;
12687;SDS011;6408;59.388;17.798;2023-06-22T09:03:49;5.03;;;3.40;;
12687;SDS011;6408;59.388;17.798;2023-06-22T09:06:20;5.07;;;3.75;;
12687;SDS011;6408;59.388;17.798;2023-06-22T09:08:47;6.20;;;3.38;;
12687;SDS011;6408;59.388;17.798;2023-06-22T09:11:15;4.25;;;3.35;;
12687;SDS011;6408;59.388;17.798;2023-06-22T09:13:44;4.57;;;3.38;;
12687;SDS011;6408;59.388;17.798;2023-06-22T09:16:12;3.60;;;3.25;;
12687;SDS011;6408;59.388;17.798;2023-06-22T09:18:39;3.60;;;3.30;;
12687;SDS011;6408;59.388;17.798;2023-06-22T09:21:07;3.38;;;3.08;;
12687;SDS011;6408;59.388;17.798;2023-06-22T09:23:34;3.35;;;3.05;;
12687;SDS011;6408;59.388;17.798;2023-06-22T09:26:02;3.58;;;3.28;;
12687;SDS011;6408;59.388;17.798;2023-06-22T09:28:29;3.30;;;3.00;;
12687;SDS011;6408;59.388;17.798;2023-06-22T09:31:00;4.03;;;3.38;;
12687;SDS011;6408;59.388;17.798;2023-06-22T09:33:27;4.10;;;3.40;;
12687;SDS011;6408;59.388;17.798;2023-06-22T09:35:54;4.18;;;3.53;;
12687;SDS011;6408;59.388;17.798;2023-06-22T09:38:21;4.25;;;3.40;;
12687;SDS011;6408;59.388;17.798;2023-06-22T09:40:49;3.72;;;3.40;;
12687;SDS011;6408;59.388;17.798;2023-06-22T09:43:16;3.97;;;3.15;;
12687;SDS011;6408;59.388;17.798;2023-06-22T09:45:43;4.28;;;3.38;;
12687;SDS011;6408;59.388;17.798;2023-06-22T09:48:12;4.78;;;3.17;;
12687;SDS011;6408;59.388;17.798;2023-06-22T09:50:39;4.65;;;3.25;;
12687;SDS011;6408;59.388;17.798;2023-06-22T09:53:07;4.40;;;2.95;;
12687;SDS011;6408;59.388;17.798;2023-06-22T09:55:34;4.03;;;2.50;;
12687;SDS011;6408;59.388;17.798;2023-06-22T09:58:01;4.80;;;3.08;;
12687;SDS011;6408;59.388;17.798;2023-06-22T10:00:29;3.20;;;2.60;;
12687;SDS011;6408;59.388;17.798;2023-06-22T10:02:57;3.45;;;2.78;;
12687;SDS011;6408;59.388;17.798;2023-06-22T10:05:26;3.55;;;2.65;;
12687;SDS011;6408;59.388;17.798;2023-06-22T10:07:53;5.07;;;2.90;;
12687;SDS011;6408;59.388;17.798;2023-06-22T10:10:20;4.18;;;2.65;;
12687;SDS011;6408;59.388;17.798;2023-06-22T10:12:55;3.25;;;2.67;;
12687;SDS011;6408;59.388;17.798;2023-06-22T10:15:24;4.05;;;2.72;;
12687;SDS011;6408;59.388;17.798;2023-06-22T10:17:52;3.10;;;2.78;;
12687;SDS011;6408;59.388;17.798;2023-06-22T10:20:19;4.63;;;3.10;;
12687;SDS011;6408;59.388;17.798;2023-06-22T10:22:49;7.18;;;2.83;;
12687;SDS011;6408;59.388;17.798;2023-06-22T10:25:16;4.13;;;2.63;;
12687;SDS011;6408;59.388;17.798;2023-06-22T10:27:44;4.43;;;2.85;;
12687;SDS011;6408;59.388;17.798;2023-06-22T10:30:12;4.25;;;2.45;;
12687;SDS011;6408;59.388;17.798;2023-06-22T10:32:40;4.70;;;2.70;;
12687;SDS011;6408;59.388;17.798;2023-06-22T10:35:09;2.92;;;2.55;;
12687;SDS011;6408;59.388;17.798;2023-06-22T10:37:38;4.47;;;2.90;;
12687;SDS011;6408;59.388;17.798;2023-06-22T10:40:11;6.45;;;2.65;;
12687;SDS011;6408;59.388;17.798;2023-06-22T10:42:40;3.05;;;2.30;;
12687;SDS011;6408;59.388;17.798;2023-06-22T10:45:08;4.10;;;2.50;;
12687;SDS011;6408;59.388;17.798;2023-06-22T10:47:36;3.05;;;2.70;;
12687;SDS011;6408;59.388;17.798;2023-06-22T10:50:04;3.45;;;2.78;;
12687;SDS011;6408;59.388;17.798;2023-06-22T10:52:32;3.80;;;2.30;;
12687;SDS011;6408;59.388;17.798;2023-06-22T10:55:00;3.15;;;2.47;;
12687;SDS011;6408;59.388;17.798;2023-06-22T10:57:29;4.25;;;2.47;;
12687;SDS011;6408;59.388;17.798;2023-06-22T10:59:56;4.93;;;2.40;;
12687;SDS011;6408;59.388;17.798;2023-06-22T11:02:24;3.17;;;2.35;;
12687;SDS011;6408;59.388;17.798;2023-06-22T11:04:53;4.05;;;2.30;;
12687;SDS011;6408;59.388;17.798;2023-06-22T11:07:20;5.07;;;2.42;;
12687;SDS011;6408;59.388;17.798;2023-06-22T11:09:48;3.42;;;2.47;;
12687;SDS011;6408;59.388;17.798;2023-06-22T11:12:16;3.53;;;2.60;;
12687;SDS011;6408;59.388;17.798;2023-06-22T11:14:45;3.15;;;2.40;;
12687;SDS011;6408;59.388;17.798;2023-06-22T11:17:15;3.47;;;2.63;;
12687;SDS011;6408;59.388;17.798;2023-06-22T11:19:43;4.28;;;2.38;;
12687;SDS011;6408;59.388;17.798;2023-06-22T11:22:11;3.10;;;2.50;;
12687;SDS011;6408;59.388;17.798;2023-06-22T11:24:41;3.03;;;2.22;;
12687;SDS011;6408;59.388;17.798;2023-06-22T11:27:08;4.32;;;2.63;;
12687;SDS011;6408;59.388;17.798;2023-06-22T11:29:35;2.78;;;2.10;;
12687;SDS011;6408;59.388;17.798;2023-06-22T11:32:07;3.35;;;2.35;;
12687;SDS011;6408;59.388;17.798;2023-06-22T11:34:35;4.63;;;2.70;;
12687;SDS011;6408;59.388;17.798;2023-06-22T11:37:02;5.55;;;2.47;;
12687;SDS011;6408;59.388;17.798;2023-06-22T11:39:30;3.15;;;2.63;;
12687;SDS011;6408;59.388;17.798;2023-06-22T11:41:57;3.20;;;2.58;;
12687;SDS011;6408;59.388;17.798;2023-06-22T11:44:25;2.95;;;2.38;;
12687;SDS011;6408;59.388;17.798;2023-06-22T11:46:52;3.47;;;2.50;;
12687;SDS011;6408;59.388;17.798;2023-06-22T11:49:22;4.20;;;2.70;;
12687;SDS011;6408;59.388;17.798;2023-06-22T11:51:49;5.03;;;2.35;;
12687;SDS011;6408;59.388;17.798;2023-06-22T11:54:17;8.95;;;2.95;;
12687;SDS011;6408;59.388;17.798;2023-06-22T11:56:44;3.03;;;2.50;;
12687;SDS011;6408;59.388;17.798;2023-06-22T11:59:12;3.03;;;2.20;;
12687;SDS011;6408;59.388;17.798;2023-06-22T12:01:39;4.10;;;2.60;;
12687;SDS011;6408;59.388;17.798;2023-06-22T12:04:06;4.13;;;2.40;;
12687;SDS011;6408;59.388;17.798;2023-06-22T12:06:38;5.22;;;2.70;;
12687;SDS011;6408;59.388;17.798;2023-06-22T12:09:08;3.50;;;2.60;;
12687;SDS011;6408;59.388;17.798;2023-06-22T12:11:35;4.30;;;2.85;;
12687;SDS011;6408;59.388;17.798;2023-06-22T12:14:03;6.03;;;2.95;;
12687;SDS011;6408;59.388;17.798;2023-06-22T12:16:31;2.83;;;2.50;;
12687;SDS011;6408;59.388;17.798;2023-06-22T12:18:58;3.80;;;2.53;;
12687;SDS011;6408;59.388;17.798;2023-06-22T12:21:26;4.10;;;2.58;;
12687;SDS011;6408;59.388;17.798;2023-06-22T12:23:55;2.72;;;2.40;;
12687;SDS011;6408;59.388;17.798;2023-06-22T12:26:22;8.18;;;2.80;;
12687;SDS011;6408;59.388;17.798;2023-06-22T12:28:50;5.38;;;2.58;;
12687;SDS011;6408;59.388;17.798;2023-06-22T12:31:18;4.75;;;2.55;;
12687;SDS011;6408;59.388;17.798;2023-06-22T12:33:45;3.10;;;2.67;;
12687;SDS011;6408;59.388;17.798;2023-06-22T12:36:13;4.53;;;2.70;;
12687;SDS011;6408;59.388;17.798;2023-06-22T12:38:41;2.70;;;2.50;;
12687;SDS011;6408;59.388;17.798;2023-06-22T12:41:10;4.88;;;2.70;;
12687;SDS011;6408;59.388;17.798;2023-06-22T12:43:37;3.42;;;2.38;;
12687;SDS011;6408;59.388;17.798;2023-06-22T12:46:05;3.13;;;2.47;;
12687;SDS011;6408;59.388;17.798;2023-06-22T12:48:33;5.32;;;2.78;;
12687;SDS011;6408;59.388;17.798;2023-06-22T12:51:06;6.95;;;2.88;;
12687;SDS011;6408;59.388;17.798;2023-06-22T12:53:34;3.28;;;2.60;;
12687;SDS011;6408;59.388;17.798;2023-06-22T12:56:02;5.68;;;2.60;;
12687;SDS011;6408;59.388;17.798;2023-06-22T12:58:32;7.35;;;3.05;;
12687;SDS011;6408;59.388;17.798;2023-06-22T13:00:59;4.90;;;2.80;;
12687;SDS011;6408;59.388;17.798;2023-06-22T13:03:27;3.00;;;2.70;;
12687;SDS011;6408;59.388;17.798;2023-06-22T13:05:54;5.43;;;2.60;;
12687;SDS011;6408;59.388;17.798;2023-06-22T13:08:22;4.72;;;2.58;;
12687;SDS011;6408;59.388;17.798;2023-06-22T13:10:49;4.80;;;2.60;;
12687;SDS011;6408;59.388;17.798;2023-06-22T13:13:16;4.13;;;2.35;;
12687;SDS011;6408;59.388;17.798;2023-06-22T13:15:46;4.20;;;2.60;;
12687;SDS011;6408;59.388;17.798;2023-06-22T13:18:13;3.15;;;2.45;;
12687;SDS011;6408;59.388;17.798;2023-06-22T13:20:41;3.53;;;2.60;;
12687;SDS011;6408;59.388;17.798;2023-06-22T13:23:10;2.58;;;2.38;;
12687;SDS011;6408;59.388;17.798;2023-06-22T13:25:38;3.95;;;2.70;;
12687;SDS011;6408;59.388;17.798;2023-06-22T13:28:05;6.90;;;2.60;;
12687;SDS011;6408;59.388;17.798;2023-06-22T13:30:33;3.22;;;2.40;;
12687;SDS011;6408;59.388;17.798;2023-06-22T13:33:02;3.22;;;2.60;;
12687;SDS011;6408;59.388;17.798;2023-06-22T13:35:30;3.60;;;2.70;;
12687;SDS011;6408;59.388;17.798;2023-06-22T13:37:58;4.25;;;2.45;;
12687;SDS011;6408;59.388;17.798;2023-06-22T13:40:25;3.53;;;2.58;;
12687;SDS011;6408;59.388;17.798;2023-06-22T13:42:52;4.53;;;2.58;;
12687;SDS011;6408;59.388;17.798;2023-06-22T13:45:20;3.58;;;2.58;;
12687;SDS011;6408;59.388;17.798;2023-06-22T13:47:47;4.07;;;2.88;;
12687;SDS011;6408;59.388;17.798;2023-06-22T13:50:17;4.20;;;2.45;;
12687;SDS011;6408;59.388;17.798;2023-06-22T13:52:44;4.10;;;2.45;;
12687;SDS011;6408;59.388;17.798;2023-06-22T13:55:12;3.13;;;2.20;;
12687;SDS011;6408;59.388;17.798;2023-06-22T13:57:40;4.72;;;2.35;;
12687;SDS011;6408;59.388;17.798;2023-06-22T14:00:08;2.42;;;2.22;;
12687;SDS011;6408;59.388;17.798;2023-06-22T14:02:37;3.25;;;2.70;;
12687;SDS011;6408;59.388;17.798;2023-06-22T14:05:05;3.67;;;2.60;;
12687;SDS011;6408;59.388;17.798;2023-06-22T14:07:34;3.28;;;2.70;;
12687;SDS011;6408;59.388;17.798;2023-06-22T14:10:02;6.45;;;2.58;;
12687;SDS011;6408;59.388;17.798;2023-06-22T14:12:30;2.97;;;2.25;;
12687;SDS011;6408;59.388;17.798;2023-06-22T14:14:57;2.55;;;2.35;;
12687;SDS011;6408;59.388;17.798;2023-06-22T14:17:25;3.08;;;2.30;;
12687;SDS011;6408;59.388;17.798;2023-06-22T14:19:52;4.68;;;2.38;;
12687;SDS011;6408;59.388;17.798;2023-06-22T14:22:20;3.28;;;2.40;;
12687;SDS011;6408;59.388;17.798;2023-06-22T14:24:49;4.82;;;2.60;;
12687;SDS011;6408;59.388;17.798;2023-06-22T14:27:17;3.60;;;2.47;;
12687;SDS011;6408;59.388;17.798;2023-06-22T14:29:44;4.20;;;2.75;;
12687;SDS011;6408;59.388;17.798;2023-06-22T14:32:12;3.42;;;2.50;;
12687;SDS011;6408;59.388;17.798;2023-06-22T14:34:39;3.53;;;2.05;;
12687;SDS011;6408;59.388;17.798;2023-06-22T14:37:08;2.60;;;2.40;;
12687;SDS011;6408;59.388;17.798;2023-06-22T14:39:35;3.47;;;2.40;;
12687;SDS011;6408;59.388;17.798;2023-06-22T14:42:05;2.53;;;2.33;;
12687;SDS011;6408;59.388;17.798;2023-06-22T14:44:32;4.63;;;2.50;;
12687;SDS011;6408;59.388;17.798;2023-06-22T14:47:00;3.70;;;2.22;;
12687;SDS011;6408;59.388;17.798;2023-06-22T14:49:27;3.83;;;2.70;;
12687;SDS011;6408;59.388;17.798;2023-06-22T14:51:55;5.85;;;2.20;;
12687;SDS011;6408;59.388;17.798;2023-06-22T14:54:23;3.28;;;2.70;;